createdAt,value
2018-12-12T00:01:09.808Z,3.20
2018-12-12T00:03:38.645Z,3.20
2018-12-12T00:06:07.469Z,3.20
2018-12-12T00:08:36.288Z,3.20
2018-12-12T00:11:05.130Z,3.10
2018-12-12T00:13:33.961Z,3.20
2018-12-12T00:16:03.530Z,3.20
2018-12-12T00:18:32.365Z,3.20
2018-12-12T00:21:01.945Z,3.20
2018-12-12T00:23:30.781Z,3.10
2018-12-12T00:25:59.630Z,3.10
2018-12-12T00:28:28.451Z,3.00
2018-12-12T00:30:57.280Z,3.10
2018-12-12T00:33:26.109Z,3.10
2018-12-12T00:35:54.958Z,3.10
2018-12-12T00:38:23.787Z,3.10
2018-12-12T00:40:53.368Z,3.00
2018-12-12T00:43:22.201Z,3.10
2018-12-12T00:45:51.044Z,3.10
2018-12-12T00:48:19.879Z,3.10
2018-12-12T00:50:48.708Z,3.10
2018-12-12T00:53:17.548Z,3.00
2018-12-12T00:55:46.442Z,3.00
2018-12-12T00:58:15.224Z,3.00
2018-12-12T01:00:44.807Z,3.10
2018-12-12T01:03:13.628Z,3.10
2018-12-12T01:05:42.476Z,3.10
2018-12-12T01:08:11.306Z,3.10
2018-12-12T01:10:40.151Z,3.10
2018-12-12T01:13:08.980Z,3.10
2018-12-12T01:15:37.831Z,3.00
2018-12-12T01:18:06.656Z,3.10
2018-12-12T01:20:35.486Z,3.10
2018-12-12T01:23:04.319Z,3.00
2018-12-12T01:25:33.923Z,3.00
2018-12-12T01:28:02.764Z,3.10
2018-12-12T01:30:31.568Z,3.00
2018-12-12T01:33:00.392Z,3.00
2018-12-12T01:35:29.239Z,3.00
2018-12-12T01:37:58.074Z,3.10
2018-12-12T01:40:26.905Z,3.00
2018-12-12T01:42:55.933Z,3.10
2018-12-12T01:45:24.770Z,3.10
2018-12-12T01:47:53.611Z,3.10
2018-12-12T01:50:22.449Z,3.10
2018-12-12T01:52:51.281Z,3.10
2018-12-12T01:55:20.115Z,3.00
2018-12-12T01:57:48.947Z,3.10
2018-12-12T02:00:17.792Z,3.10
2018-12-12T02:02:46.630Z,3.10
2018-12-12T02:05:15.477Z,3.10
2018-12-12T02:07:44.317Z,3.00
2018-12-12T02:10:13.889Z,3.00
2018-12-12T02:12:42.724Z,3.10
2018-12-12T02:15:12.297Z,3.00
2018-12-12T02:17:41.128Z,3.10
2018-12-12T02:20:10.714Z,3.10
2018-12-12T02:22:39.557Z,3.20
2018-12-12T02:25:08.380Z,3.10
2018-12-12T02:27:37.202Z,3.10
2018-12-12T02:30:06.061Z,3.10
2018-12-12T02:32:34.887Z,3.10
2018-12-12T02:35:04.463Z,3.10
2018-12-12T02:37:33.288Z,3.10
2018-12-12T02:40:02.118Z,3.10
2018-12-12T02:42:30.960Z,3.00
2018-12-12T02:45:00.537Z,3.00
2018-12-12T02:47:29.371Z,3.00
2018-12-12T02:49:58.202Z,3.00
2018-12-12T02:52:28.087Z,3.00
2018-12-12T02:54:56.841Z,3.00
2018-12-12T02:57:26.422Z,3.10
2018-12-12T02:59:55.255Z,3.10
2018-12-12T03:02:24.113Z,3.10
2018-12-12T03:04:52.940Z,3.10
2018-12-12T03:07:21.779Z,3.10
2018-12-12T03:09:50.613Z,3.10
2018-12-12T03:12:19.452Z,3.10
2018-12-12T03:14:48.283Z,3.10
2018-12-12T03:17:17.862Z,3.10
2018-12-12T03:19:46.691Z,3.10
2018-12-12T03:22:15.541Z,3.00
2018-12-12T03:24:44.377Z,3.00
2018-12-12T03:27:13.975Z,3.00
2018-12-12T03:29:42.837Z,3.10
2018-12-12T03:32:11.694Z,3.10
2018-12-12T03:34:40.541Z,3.10
2018-12-12T03:37:09.398Z,3.00
2018-12-12T03:39:38.261Z,3.10
2018-12-12T03:42:07.096Z,3.10
2018-12-12T03:44:35.939Z,3.10
2018-12-12T03:47:04.783Z,3.10
2018-12-12T03:49:33.626Z,3.00
2018-12-12T03:52:02.469Z,3.00
2018-12-12T03:54:31.302Z,3.00
2018-12-12T03:57:00.171Z,3.00
2018-12-12T03:59:28.986Z,3.00
2018-12-12T04:01:57.810Z,3.00
2018-12-12T04:04:26.657Z,3.00
2018-12-12T04:06:55.498Z,3.00
2018-12-12T04:09:25.082Z,3.00
2018-12-12T04:11:53.924Z,3.00
2018-12-12T04:14:22.756Z,3.00
2018-12-12T04:16:51.598Z,3.00
2018-12-12T04:19:20.477Z,3.00
2018-12-12T04:21:49.282Z,3.00
2018-12-12T04:24:18.174Z,3.00
2018-12-12T04:26:47.722Z,2.90
2018-12-12T04:29:16.557Z,3.00
2018-12-12T04:31:45.394Z,3.00
2018-12-12T04:34:14.242Z,3.00
2018-12-12T04:36:43.084Z,3.00
2018-12-12T04:39:11.922Z,3.00
2018-12-12T04:41:40.759Z,3.00
2018-12-12T04:44:09.601Z,3.00
2018-12-12T04:46:38.452Z,3.00
2018-12-12T04:51:36.728Z,3.10
2018-12-12T04:54:05.585Z,3.00
2018-12-12T04:56:34.426Z,3.00
2018-12-12T04:59:03.285Z,3.10
2018-12-12T05:01:32.154Z,3.10
2018-12-12T05:04:00.987Z,3.00
2018-12-12T05:06:29.841Z,3.00
2018-12-12T05:08:58.697Z,3.00
2018-12-12T05:11:27.545Z,3.00
2018-12-12T05:13:56.397Z,3.00
2018-12-12T05:16:25.245Z,3.00
2018-12-12T05:18:54.844Z,3.00
2018-12-12T05:21:23.705Z,3.10
2018-12-12T05:23:52.563Z,3.20
2018-12-12T05:26:21.412Z,3.20
2018-12-12T05:28:50.261Z,3.10
2018-12-12T05:31:19.110Z,3.10
2018-12-12T05:33:47.960Z,3.10
2018-12-12T05:36:16.813Z,3.00
2018-12-12T05:38:45.665Z,3.00
2018-12-12T05:41:15.252Z,3.00
2018-12-12T05:43:44.100Z,3.10
2018-12-12T05:46:12.947Z,3.00
2018-12-12T05:48:42.557Z,3.00
2018-12-12T05:51:11.400Z,3.10
2018-12-12T05:53:40.271Z,3.10
2018-12-12T05:56:14.173Z,3.00
2018-12-12T05:58:37.978Z,3.00
2018-12-12T06:01:06.816Z,3.00
2018-12-12T06:03:36.399Z,3.00
2018-12-12T06:06:05.257Z,3.00
2018-12-12T06:08:34.112Z,3.00
2018-12-12T06:11:02.970Z,3.00
2018-12-12T06:13:31.848Z,3.00
2018-12-12T06:16:00.742Z,3.10
2018-12-12T06:18:29.612Z,3.00
2018-12-12T06:20:58.458Z,3.00
2018-12-12T06:23:27.310Z,3.00
2018-12-12T06:25:56.180Z,3.00
2018-12-12T06:28:25.019Z,3.10
2018-12-12T06:30:54.628Z,3.10
2018-12-12T06:33:23.477Z,3.00
2018-12-12T06:35:52.366Z,3.00
2018-12-12T06:38:21.189Z,3.00
2018-12-12T06:40:50.074Z,3.00
2018-12-12T06:43:19.674Z,3.00
2018-12-12T06:45:49.261Z,3.00
2018-12-12T06:49:13.240Z,3.00
2018-12-12T06:51:42.041Z,2.90
2018-12-12T06:54:10.878Z,2.90
2018-12-12T06:56:39.731Z,3.00
2018-12-12T06:59:09.314Z,3.00
2018-12-12T07:01:38.149Z,3.10
2018-12-12T07:04:06.990Z,2.90
2018-12-12T07:06:35.832Z,2.90
2018-12-12T07:09:04.665Z,2.80
2018-12-12T07:11:33.497Z,2.60
2018-12-12T07:14:02.345Z,2.70
2018-12-12T07:16:31.193Z,2.40
2018-12-12T07:19:00.076Z,2.40
2018-12-12T07:21:28.864Z,2.40
2018-12-12T07:23:57.702Z,2.40
2018-12-12T07:26:26.567Z,2.30
2018-12-12T07:28:55.411Z,2.30
2018-12-12T07:31:24.259Z,2.20
2018-12-12T07:33:53.126Z,2.30
2018-12-12T07:36:21.977Z,2.40
2018-12-12T07:38:50.828Z,2.30
2018-12-12T07:41:19.661Z,2.30
2018-12-12T07:43:48.551Z,2.30
2018-12-12T07:46:17.380Z,2.20
2018-12-12T07:48:46.231Z,2.20
2018-12-12T07:51:15.120Z,2.20
2018-12-12T07:53:43.932Z,2.10
2018-12-12T07:56:12.768Z,2.10
2018-12-12T07:58:41.637Z,2.10
2018-12-12T08:01:10.480Z,2.10
2018-12-12T08:03:39.318Z,2.10
2018-12-12T08:06:08.161Z,2.10
2018-12-12T08:08:36.997Z,2.10
2018-12-12T08:11:05.843Z,2.10
2018-12-12T08:13:34.672Z,2.10
2018-12-12T08:16:03.507Z,2.10
2018-12-12T08:18:33.085Z,2.00
2018-12-12T08:21:01.928Z,2.00
2018-12-12T08:23:30.761Z,2.00
2018-12-12T08:25:59.617Z,2.10
2018-12-12T08:28:28.454Z,2.10
2018-12-12T08:30:58.043Z,2.10
2018-12-12T08:33:26.899Z,2.30
2018-12-12T08:35:55.739Z,2.30
2018-12-12T08:38:24.607Z,2.30
2018-12-12T08:40:53.455Z,2.40
2018-12-12T08:43:22.298Z,2.40
2018-12-12T08:45:51.181Z,2.50
2018-12-12T08:48:19.990Z,2.40
2018-12-12T08:50:49.573Z,2.60
2018-12-12T08:53:18.444Z,2.50
2018-12-12T08:55:47.289Z,2.50
2018-12-12T08:58:16.139Z,2.60
2018-12-12T09:00:44.993Z,2.60
2018-12-12T09:03:17.511Z,2.70
2018-12-12T09:05:42.676Z,2.70
2018-12-12T09:08:11.516Z,2.70
2018-12-12T09:10:41.098Z,2.70
2018-12-12T09:13:09.977Z,2.80
2018-12-12T09:15:38.809Z,2.80
2018-12-12T09:18:07.689Z,2.90
2018-12-12T09:20:36.501Z,2.90
2018-12-12T09:23:05.347Z,2.80
2018-12-12T09:25:34.186Z,2.90
2018-12-12T09:28:03.069Z,2.90
2018-12-12T09:30:31.905Z,2.90
2018-12-12T09:33:00.745Z,2.90
2018-12-12T09:35:29.581Z,3.00
2018-12-12T09:37:58.422Z,3.10
2018-12-12T09:40:27.317Z,3.10
2018-12-12T09:42:56.123Z,3.20
2018-12-12T09:45:24.967Z,3.20
2018-12-12T09:47:54.541Z,3.30
2018-12-12T09:50:23.378Z,3.30
2018-12-12T09:52:52.213Z,3.40
2018-12-12T09:55:21.071Z,3.40
2018-12-12T09:57:49.914Z,3.50
2018-12-12T10:00:18.756Z,3.60
2018-12-12T10:02:47.662Z,3.70
2018-12-12T10:05:16.469Z,3.70
2018-12-12T10:07:45.288Z,3.70
2018-12-12T10:10:14.149Z,3.80
2018-12-12T10:12:43.005Z,3.80
2018-12-12T10:15:11.848Z,3.90
2018-12-12T10:17:41.425Z,4.00
2018-12-12T10:20:10.283Z,4.00
2018-12-12T10:22:39.116Z,4.00
2018-12-12T10:25:07.952Z,4.00
2018-12-12T10:27:36.790Z,4.00
2018-12-12T10:30:05.647Z,4.10
2018-12-12T10:32:34.489Z,4.30
2018-12-12T10:35:03.336Z,4.50
2018-12-12T10:37:32.176Z,4.60
2018-12-12T10:40:01.026Z,4.50
2018-12-12T10:42:29.854Z,4.50
2018-12-12T10:44:58.696Z,4.70
2018-12-12T10:47:27.533Z,4.90
2018-12-12T10:49:56.377Z,4.90
2018-12-12T10:52:25.206Z,4.80
2018-12-12T10:54:54.037Z,4.70
2018-12-12T10:57:22.873Z,4.80
2018-12-12T10:59:52.453Z,4.90
2018-12-12T11:02:26.783Z,5.00
2018-12-12T11:04:56.356Z,4.90
2018-12-12T11:07:25.365Z,5.20
2018-12-12T11:09:54.207Z,5.20
2018-12-12T11:12:23.050Z,5.30
2018-12-12T11:14:51.908Z,5.40
2018-12-12T11:17:20.784Z,5.40
2018-12-12T11:19:49.633Z,5.50
2018-12-12T11:22:18.473Z,5.50
2018-12-12T11:24:47.310Z,5.40
2018-12-12T11:27:16.153Z,5.60
2018-12-12T11:29:45.002Z,5.70
2018-12-12T11:32:14.590Z,5.90
2018-12-12T11:34:43.438Z,6.00
2018-12-12T11:37:12.286Z,6.10
2018-12-12T11:39:41.136Z,6.10
2018-12-12T11:42:09.995Z,6.50
2018-12-12T11:44:38.872Z,6.60
2018-12-12T11:47:07.686Z,6.60
2018-12-12T11:49:36.547Z,6.60
2018-12-12T11:52:05.520Z,6.40
2018-12-12T11:54:34.237Z,6.10
2018-12-12T11:57:03.073Z,6.10
2018-12-12T11:59:31.929Z,6.10
2018-12-12T12:02:00.770Z,6.00
2018-12-12T12:04:30.371Z,5.90
2018-12-12T12:06:59.225Z,5.80
2018-12-12T12:09:28.062Z,5.80
2018-12-12T12:11:57.707Z,5.70
2018-12-12T12:14:26.506Z,5.80
2018-12-12T12:16:55.350Z,5.80
2018-12-12T12:19:24.924Z,5.80
2018-12-12T12:21:53.815Z,5.70
2018-12-12T12:24:22.619Z,5.70
2018-12-12T12:26:51.464Z,5.80
2018-12-12T12:29:20.313Z,5.80
2018-12-12T12:31:49.161Z,5.80
2018-12-12T12:34:18.013Z,5.90
2018-12-12T12:36:46.861Z,5.90
2018-12-12T12:39:15.691Z,5.90
2018-12-12T12:41:44.535Z,5.80
2018-12-12T12:44:13.404Z,5.80
2018-12-12T12:46:42.258Z,5.90
2018-12-12T12:49:11.092Z,5.80
2018-12-12T12:51:39.938Z,5.80
2018-12-12T12:54:08.792Z,5.90
2018-12-12T12:56:38.388Z,5.90
2018-12-12T12:59:07.239Z,5.80
2018-12-12T13:01:36.077Z,5.70
2018-12-12T13:04:09.686Z,5.80
2018-12-12T13:06:34.600Z,5.80
2018-12-12T13:09:03.453Z,5.80
2018-12-12T13:11:32.309Z,5.70
2018-12-12T13:14:01.174Z,5.80
2018-12-12T13:16:30.005Z,5.70
2018-12-12T13:18:58.864Z,5.70
2018-12-12T13:21:27.713Z,5.70
2018-12-12T13:23:56.555Z,5.70
2018-12-12T13:26:25.399Z,5.70
2018-12-12T13:28:54.252Z,5.60
2018-12-12T13:31:23.113Z,5.70
2018-12-12T13:33:51.971Z,5.70
2018-12-12T13:36:20.821Z,5.60
2018-12-12T13:38:49.674Z,5.70
2018-12-12T13:41:18.547Z,5.60
2018-12-12T13:43:47.393Z,5.60
2018-12-12T13:46:16.245Z,5.50
2018-12-12T13:48:45.101Z,5.60
2018-12-12T13:51:14.684Z,5.50
2018-12-12T13:53:43.633Z,5.60
2018-12-12T13:56:12.454Z,5.60
2018-12-12T13:58:41.339Z,5.60
2018-12-12T14:01:10.159Z,5.60
2018-12-12T14:03:39.812Z,5.60
2018-12-12T14:06:08.645Z,5.60
2018-12-12T14:08:37.507Z,5.60
2018-12-12T14:11:06.355Z,5.60
2018-12-12T14:13:35.200Z,5.50
2018-12-12T14:16:04.049Z,5.50
2018-12-12T14:18:32.896Z,5.50
2018-12-12T14:21:01.763Z,5.40
2018-12-12T14:23:30.630Z,5.50
2018-12-12T14:25:59.469Z,5.40
2018-12-12T14:28:28.329Z,5.40
2018-12-12T14:30:57.163Z,5.40
2018-12-12T14:33:26.025Z,5.40
2018-12-12T14:36:00.940Z,5.40
2018-12-12T14:38:23.722Z,5.40
2018-12-12T14:40:53.343Z,5.40
2018-12-12T14:43:22.188Z,5.50
2018-12-12T14:45:51.041Z,5.40
2018-12-12T14:48:19.908Z,5.40
2018-12-12T14:50:48.821Z,5.30
2018-12-12T14:53:17.631Z,5.30
2018-12-12T14:55:46.506Z,5.20
2018-12-12T14:58:15.311Z,5.20
2018-12-12T15:00:44.213Z,5.20
2018-12-12T15:03:13.742Z,5.10
2018-12-12T15:05:43.338Z,5.10
2018-12-12T15:08:12.966Z,5.00
2018-12-12T15:10:41.761Z,5.00
2018-12-12T15:13:10.609Z,5.00
2018-12-12T15:15:39.449Z,4.90
2018-12-12T15:18:08.294Z,4.80
2018-12-12T15:20:37.894Z,4.80
2018-12-12T15:23:07.488Z,4.80
2018-12-12T15:25:36.335Z,4.80
2018-12-12T15:28:05.171Z,4.70
2018-12-12T15:30:33.993Z,4.70
2018-12-12T15:33:02.841Z,4.70
2018-12-12T15:35:31.692Z,4.70
2018-12-12T15:38:01.414Z,4.60
2018-12-12T15:40:29.343Z,4.60
2018-12-12T15:42:58.175Z,4.50
2018-12-12T15:45:27.012Z,4.60
2018-12-12T15:47:55.842Z,4.50
2018-12-12T15:50:24.679Z,4.50
2018-12-12T15:52:53.516Z,4.60
2018-12-12T15:55:22.359Z,4.60
2018-12-12T15:57:51.198Z,4.50
2018-12-12T16:00:20.034Z,4.50
2018-12-12T16:02:48.889Z,4.50
2018-12-12T16:05:17.724Z,4.60
2018-12-12T16:10:16.733Z,4.60
2018-12-12T16:12:45.559Z,4.50
2018-12-12T16:15:14.398Z,4.50
2018-12-12T16:17:43.218Z,4.60
2018-12-12T16:20:12.824Z,4.50
2018-12-12T16:22:41.750Z,4.60
2018-12-12T16:25:10.546Z,4.70
2018-12-12T16:27:39.363Z,4.60
2018-12-12T16:30:08.220Z,4.60
2018-12-12T16:32:37.067Z,4.60
2018-12-12T16:35:06.645Z,4.60
2018-12-12T16:37:35.469Z,4.70
2018-12-12T16:40:05.061Z,4.70
2018-12-12T16:42:33.925Z,4.60
2018-12-12T16:45:02.740Z,4.60
2018-12-12T16:47:32.348Z,4.60
2018-12-12T16:50:01.205Z,4.70
2018-12-12T16:52:30.040Z,4.70
2018-12-12T16:54:58.893Z,4.80
2018-12-12T16:57:27.741Z,4.70
2018-12-12T16:59:56.580Z,4.80
2018-12-12T17:02:25.426Z,4.70
2018-12-12T17:04:54.262Z,4.70
2018-12-12T17:07:23.106Z,4.70
2018-12-12T17:09:51.941Z,4.70
2018-12-12T17:12:20.816Z,4.70
2018-12-12T17:14:49.639Z,4.80
2018-12-12T17:17:19.258Z,4.70
2018-12-12T17:19:48.062Z,4.70
2018-12-12T17:22:16.893Z,4.70
2018-12-12T17:24:45.753Z,4.70
2018-12-12T17:27:14.576Z,4.80
2018-12-12T17:29:43.406Z,4.70
2018-12-12T17:32:12.246Z,4.70
2018-12-12T17:34:41.081Z,4.70
2018-12-12T17:37:09.902Z,4.70
2018-12-12T17:39:38.729Z,4.70
2018-12-12T17:42:07.566Z,4.60
2018-12-12T17:44:36.393Z,4.60
2018-12-12T17:49:34.653Z,4.70
2018-12-12T17:52:03.490Z,4.70
2018-12-12T17:54:33.067Z,4.60
2018-12-12T17:57:01.902Z,4.60
2018-12-12T17:59:30.758Z,4.70
2018-12-12T18:01:59.593Z,4.60
2018-12-12T18:04:28.512Z,4.60
2018-12-12T18:06:57.260Z,4.60
2018-12-12T18:09:26.102Z,4.60
2018-12-12T18:11:54.925Z,4.60
2018-12-12T18:14:24.512Z,4.60
2018-12-12T18:16:53.369Z,4.60
2018-12-12T18:19:22.219Z,4.60
2018-12-12T18:21:51.078Z,4.60
2018-12-12T18:24:19.882Z,4.60
2018-12-12T18:26:48.732Z,4.60
2018-12-12T18:29:17.564Z,4.60
2018-12-12T18:31:47.142Z,4.60
2018-12-12T18:34:15.972Z,4.70
2018-12-12T18:36:44.803Z,4.70
2018-12-12T18:39:13.631Z,4.60
2018-12-12T18:41:43.206Z,4.60
2018-12-12T18:44:12.045Z,4.60
2018-12-12T18:46:40.876Z,4.70
2018-12-12T18:49:09.724Z,4.70
2018-12-12T18:51:38.552Z,4.60
2018-12-12T18:54:07.392Z,4.60
2018-12-12T18:56:36.985Z,4.50
2018-12-12T18:59:05.847Z,4.50
2018-12-12T19:01:34.693Z,4.50
2018-12-12T19:04:03.515Z,4.50
2018-12-12T19:06:32.355Z,4.60
2018-12-12T19:09:01.939Z,4.60
2018-12-12T19:14:00.192Z,4.60
2018-12-12T19:16:29.034Z,4.50
2018-12-12T19:18:58.647Z,4.50
2018-12-12T19:21:28.227Z,4.60
2018-12-12T19:23:57.049Z,4.60
2018-12-12T19:26:25.880Z,4.70
2018-12-12T19:28:54.724Z,4.60
2018-12-12T19:31:23.576Z,4.60
2018-12-12T19:33:52.419Z,4.60
2018-12-12T19:36:21.272Z,4.60
2018-12-12T19:38:50.886Z,4.60
2018-12-12T19:41:20.508Z,4.60
2018-12-12T19:43:49.351Z,4.60
2018-12-12T19:46:18.182Z,4.60
2018-12-12T19:48:47.764Z,4.50
2018-12-12T19:51:16.609Z,4.50
2018-12-12T19:53:45.444Z,4.60
2018-12-12T19:56:14.273Z,4.50
2018-12-12T19:58:43.118Z,4.50
2018-12-12T20:01:11.944Z,4.40
2018-12-12T20:03:40.797Z,4.40
2018-12-12T20:06:09.637Z,4.40
2018-12-12T20:08:38.468Z,4.50
2018-12-12T20:11:07.312Z,4.40
2018-12-12T20:13:36.146Z,4.40
2018-12-12T20:16:05.031Z,4.40
2018-12-12T20:18:33.863Z,4.50
2018-12-12T20:21:02.718Z,4.50
2018-12-12T20:23:31.546Z,4.50
2018-12-12T20:26:00.409Z,4.40
2018-12-12T20:28:30.027Z,4.40
2018-12-12T20:30:58.885Z,4.40
2018-12-12T20:33:28.456Z,4.40
2018-12-12T20:35:57.277Z,4.40
2018-12-12T20:38:26.120Z,4.40
2018-12-12T20:40:54.989Z,4.40
2018-12-12T20:43:23.788Z,4.30
2018-12-12T20:45:52.619Z,4.30
2018-12-12T20:48:21.451Z,4.30
2018-12-12T20:50:51.050Z,4.20
2018-12-12T20:53:19.875Z,4.20
2018-12-12T20:55:48.758Z,4.20
2018-12-12T20:58:18.260Z,4.10
2018-12-12T21:00:47.044Z,4.10
2018-12-12T21:03:15.879Z,4.00
2018-12-12T21:05:44.704Z,4.00
2018-12-12T21:08:13.544Z,3.90
2018-12-12T21:10:42.384Z,3.90
2018-12-12T21:13:11.988Z,3.80
2018-12-12T21:15:41.586Z,3.80
2018-12-12T21:18:10.429Z,3.80
2018-12-12T21:20:39.267Z,3.70
2018-12-12T21:23:08.874Z,3.70
2018-12-12T21:25:38.459Z,3.60
2018-12-12T21:28:07.295Z,3.60
2018-12-12T21:30:36.887Z,3.40
2018-12-12T21:33:05.722Z,3.40
2018-12-12T21:35:34.648Z,3.30
2018-12-12T21:38:03.442Z,3.30
2018-12-12T21:40:32.329Z,3.20
2018-12-12T21:43:01.293Z,3.20
2018-12-12T21:45:30.119Z,3.20
2018-12-12T21:47:58.968Z,3.20
2018-12-12T21:50:27.849Z,3.20
2018-12-12T21:52:56.675Z,3.20
2018-12-12T21:55:25.507Z,3.20
2018-12-12T21:57:54.349Z,3.20
2018-12-12T22:00:23.174Z,3.20
2018-12-12T22:02:52.049Z,3.20
2018-12-12T22:05:20.846Z,3.10
2018-12-12T22:07:50.426Z,3.10
2018-12-12T22:10:19.268Z,3.20
2018-12-12T22:12:48.124Z,3.10
2018-12-12T22:15:17.711Z,3.10
2018-12-12T22:17:46.561Z,3.20
2018-12-12T22:20:15.397Z,3.10
2018-12-12T22:22:44.244Z,3.10
2018-12-12T22:25:13.817Z,3.10
2018-12-12T22:27:43.390Z,3.00
2018-12-12T22:30:12.241Z,3.00
2018-12-12T22:32:41.092Z,2.90
2018-12-12T22:35:10.679Z,2.90
2018-12-12T22:39:11.538Z,3.00
2018-12-12T22:41:40.365Z,2.90
2018-12-12T22:44:09.212Z,2.90
2018-12-12T22:46:38.047Z,2.90
2018-12-12T22:49:06.885Z,2.90
2018-12-12T22:54:05.879Z,2.80
2018-12-12T22:56:34.722Z,2.80
2018-12-12T22:59:03.565Z,2.80
2018-12-12T23:01:32.400Z,2.70
2018-12-12T23:04:01.235Z,2.70
2018-12-12T23:06:30.083Z,2.70
2018-12-12T23:08:58.926Z,2.70
2018-12-12T23:11:27.770Z,2.70
2018-12-12T23:13:56.592Z,2.70
2018-12-12T23:16:25.428Z,2.60
2018-12-12T23:18:54.270Z,2.60
2018-12-12T23:21:23.106Z,2.60
2018-12-12T23:23:51.934Z,2.60
2018-12-12T23:26:20.753Z,2.60
2018-12-12T23:28:49.599Z,2.60
2018-12-12T23:31:18.431Z,2.60
2018-12-12T23:33:47.297Z,2.60
2018-12-12T23:36:16.127Z,2.60
2018-12-12T23:38:45.717Z,2.50
2018-12-12T23:41:15.288Z,2.50
2018-12-12T23:43:44.118Z,2.50
2018-12-12T23:46:13.708Z,2.50
2018-12-12T23:48:42.552Z,2.60
2018-12-12T23:51:11.391Z,2.60
2018-12-12T23:53:40.249Z,2.50
2018-12-12T23:56:09.092Z,2.60
2018-12-12T23:58:37.931Z,2.50
